createdAt,value
2018-12-12T11:10:05.047Z,19.78
2018-12-12T11:11:03.995Z,19.81
2018-12-12T11:12:04.314Z,19.91
2018-12-12T11:13:04.649Z,20.02
2018-12-12T11:14:04.250Z,20.11
2018-12-12T11:15:03.892Z,20.16
2018-12-12T11:16:05.211Z,20.20
2018-12-12T11:17:03.032Z,20.23
2018-12-12T11:18:03.911Z,20.33
2018-12-12T11:19:02.791Z,20.39
2018-12-12T11:20:03.047Z,20.38
2018-12-12T11:21:02.274Z,20.43
2018-12-12T11:22:02.052Z,20.43
2018-12-12T11:23:02.335Z,20.51
2018-12-12T11:24:01.637Z,20.54
2018-12-12T11:25:01.625Z,20.54
2018-12-12T11:26:01.149Z,20.61
2018-12-12T11:27:00.953Z,20.58
2018-12-12T11:28:01.307Z,20.59
2018-12-12T11:29:00.511Z,20.64
2018-12-12T11:30:00.231Z,20.67
2018-12-12T11:30:59.932Z,20.74
2018-12-12T11:32:00.814Z,20.74
2018-12-12T11:33:00.070Z,20.79
2018-12-12T11:33:59.254Z,20.77
2018-12-12T11:34:58.194Z,20.81
2018-12-12T11:35:58.432Z,20.87
2018-12-12T11:36:58.625Z,20.87
2018-12-12T11:37:58.174Z,20.85
2018-12-12T11:38:58.236Z,20.89
2018-12-12T11:39:57.892Z,20.89
2018-12-12T11:40:57.336Z,20.94
2018-12-12T11:41:57.251Z,20.82
2018-12-12T11:42:56.773Z,20.89
2018-12-12T11:43:56.449Z,20.85
2018-12-12T11:44:55.890Z,20.92
2018-12-12T11:45:56.231Z,20.89
2018-12-12T11:46:55.633Z,20.95
2018-12-12T11:47:55.151Z,20.87
2018-12-12T11:48:55.371Z,21.00
2018-12-12T11:49:54.632Z,21.02
2018-12-12T11:50:55.269Z,21.00
2018-12-12T11:51:54.171Z,21.06
2018-12-12T11:52:53.549Z,21.00
2018-12-12T11:53:53.676Z,21.06
2018-12-12T11:54:55.230Z,21.02
2018-12-12T11:55:52.129Z,21.02
2018-12-12T11:56:52.609Z,21.00
2018-12-12T11:57:52.198Z,21.02
2018-12-12T11:58:51.449Z,21.03
2018-12-12T11:59:51.957Z,20.97
2018-12-12T12:00:50.679Z,21.07
2018-12-12T12:01:51.414Z,21.12
2018-12-12T12:02:51.589Z,21.14
2018-12-12T12:03:56.617Z,21.18
2018-12-12T12:04:51.593Z,21.13
2018-12-12T12:05:49.811Z,21.07
2018-12-12T12:06:49.540Z,21.14
2018-12-12T12:07:49.434Z,21.13
2018-12-12T12:08:49.186Z,21.10
2018-12-12T12:09:49.119Z,21.22
2018-12-12T12:10:48.014Z,21.18
2018-12-12T12:11:48.614Z,21.09
2018-12-12T12:12:48.634Z,21.09
2018-12-12T12:13:47.795Z,20.97
2018-12-12T12:14:47.076Z,21.00
2018-12-12T12:15:47.169Z,20.97
2018-12-12T12:16:46.688Z,20.88
2018-12-12T12:17:46.796Z,20.87
2018-12-12T12:18:46.487Z,20.81
2018-12-12T12:19:45.556Z,20.84
2018-12-12T12:20:45.230Z,20.87
2018-12-12T12:21:45.273Z,20.81
2018-12-12T12:22:45.837Z,20.79
2018-12-12T12:23:44.793Z,20.79
2018-12-12T12:24:44.437Z,20.79
2018-12-12T12:25:43.870Z,20.67
2018-12-12T12:26:43.449Z,20.79
2018-12-12T12:27:43.029Z,20.66
2018-12-12T12:28:43.372Z,20.67
2018-12-12T12:29:42.513Z,20.70
2018-12-12T12:30:42.114Z,20.66
2018-12-12T12:31:42.216Z,20.61
2018-12-12T12:32:41.511Z,20.69
2018-12-12T12:33:41.398Z,20.63
2018-12-12T12:34:40.992Z,20.64
2018-12-12T12:35:40.599Z,20.67
2018-12-12T12:36:41.252Z,20.69
2018-12-12T12:37:40.094Z,20.63
2018-12-12T12:38:39.999Z,20.61
2018-12-12T12:39:39.875Z,20.61
2018-12-12T12:40:39.438Z,20.58
2018-12-12T12:41:39.055Z,20.63
2018-12-12T12:42:39.536Z,20.67
2018-12-12T12:43:38.767Z,20.72
2018-12-12T12:44:39.126Z,20.64
2018-12-12T12:47:43.482Z,20.69
